Home   Weather   USA   Lampasas   Past weeks
Flag for USA

Past Weather in Lampasas, Texas, USA — Yesterday and Last 2 Weeks

Currently: 92 °F. Sunny. (Weather station: Fort Hood / Gray U. S. Army Airfield, USA). See more current weather

Past Weather in Lampasas — Graph

°F

Lampasas Temperature Yesterday

Maximum temperature yesterday: 91 °F (at 3:06 pm)
Minimum temperature yesterday: 73 °F (at 6:10 am)
Average temperature yesterday: 81 °F

High & Low Weather Summary for the Past Weeks

 TemperatureHumidityPressure
High95 °F (Jun 8, 3:55 pm)100% (Jun 12, 2:35 am)30.14 "Hg (Jun 12, 2:35 am)
Low71 °F (Jun 9, 5:55 am)41% (Jun 8, 3:55 pm)29.70 "Hg (Jun 17, 4:55 pm)
Average82 °F75%29.91 "Hg
* Reported Jun 7 4:55 pm — Jun 22 4:55 pm, Lampasas. Weather by CustomWeather, © 2024

Note: Actual official high and low records may vary slightly from our data, if they occured in-between our weather recording intervals... More about our weather records

Lampasas Weather History for the Previous 24 Hours

Scroll right to see more
 ConditionsComfort  
Time TempWeatherWind HumidityBarometerVisibility
4:55 pm
Sat, Jun 22
93 °FPassing clouds.9 mph46%29.96 "Hg10 mi
3:55 pm92 °FSunny.7 mph48%29.97 "Hg10 mi
2:55 pm91 °FScattered clouds.12 mph50%29.98 "Hg10 mi
1:55 pm89 °FBroken clouds.5 mph53%30.01 "Hg10 mi
1:25 pm90 °FBroken clouds.8 mph52%30.02 "Hg10 mi
1:15 pm88 °FPartly sunny.7 mph55%30.02 "Hg9 mi
1:05 pm88 °FPartly sunny.9 mph59%30.03 "Hg10 mi
12:55 pm88 °FScattered clouds.5 mph56%30.03 "Hg10 mi
12:25 pm88 °FScattered clouds.5 mph55%30.04 "Hg9 mi
12:15 pm86 °FPartly sunny.7 mph59%30.04 "Hg10 mi
11:55 am86 °FScattered clouds.7 mph60%30.05 "Hg10 mi
11:00 am84 °FScattered clouds.7 mph66%30.06 "Hg10 mi
10:40 am84 °FPartly sunny.7 mph66%30.06 "Hg10 mi
10:05 am84 °FScattered clouds.7 mph66%30.07 "Hg9 mi
9:55 am83 °FPartly sunny.6 mph72%30.06 "Hg9 mi
9:15 am79 °FScattered clouds.8 mph84%30.07 "Hg10 mi
9:05 am79 °FBroken clouds.6 mph84%30.07 "Hg10 mi
8:42 am79 °FPartly sunny.7 mph84%30.07 "Hg10 mi
8:05 am77 °FPartly sunny.6 mph94%30.06 "Hg10 mi
6:55 am74 °FSunny.3 mph96%30.05 "Hg10 mi
5:55 am78 °FClear.5 mph92%30.06 "Hg10 mi
4:55 am77 °FClear.No wind94%30.05 "Hg10 mi
3:55 am78 °FClear.No wind92%30.04 "Hg10 mi
2:55 am80 °FClear.3 mph90%30.04 "Hg10 mi
1:55 am79 °FClear.6 mph86%30.06 "Hg10 mi
1:05 am82 °FPassing clouds.6 mph84%30.05 "Hg10 mi
1:00 am82 °FPassing clouds.3 mph84%30.06 "Hg10 mi
11:55 pm
Fri, Jun 21
79 °FClear.6 mph81%30.06 "Hg10 mi
10:55 pm81 °FClear.6 mph74%30.05 "Hg10 mi
9:55 pm83 °FClear.10 mph69%30.03 "Hg10 mi
8:55 pm83 °FClear.6 mph68%30.03 "Hg10 mi
7:55 pm87 °FSunny.12 mph57%30.02 "Hg10 mi
6:55 pm89 °FSunny.12 mph52%30.02 "Hg10 mi
Weather by CustomWeather, © 2024

See weather overview